Nixon, Texas
Current Conditions -  °F | °C
As of 9:51 AM on Friday 31 Oct 2014 (Local Time) from KBAZ Reporting Station
Clear Clear  
Wind Chill: 65°   Ceiling: Unl
Heat Index: 65°   Visibility: 10mi
Dew Point: 51°   Wind: 14mph
Humidity: 61%   Direction: 30°NNE
Pressure: 30.26"   Gusts: NA
Location:  29.27°N, 97.76°W
Report Text: KBAZ 311451Z 03012KT 10SM CLR 18/11 A3026 RMK AO2 SLP242 T01830106 53029
Loading
Personal Weather Stations






























Interactive Weather Map
Tropical Storm Tracking
New forecast layout! Learn more

10-Day Weather Forecast

Advertisements
Track Severe Weather on mobile